Time;durP1;ratioP1;P1;durP2;ratioP2;P2;SDS_P1;SDS_P2;PMS_P1;PMS_P2;Temp;Humidity;BMP_temperature;BMP_pressure;BME280_temperature;BME280_humidity;BME280_pressure;Samples;Min_cycle;Max_cycle;Signal;HPM_P1;HPM_P2
2023/09/28 00:00:35;;;;;;;133.43;10.70;;;;;;;22.69;54.91;99566.00;7283652;19;129152;-35
2023/09/28 00:03:00;;;;;;;117.40;10.07;;;;;;;22.58;54.83;99553.09;7287205;19;130341;-36
2023/09/28 00:05:26;;;;;;;169.30;12.47;;;;;;;22.66;55.33;99566.31;7286756;19;130795;-36
2023/09/28 00:07:51;;;;;;;119.65;10.50;;;;;;;22.65;54.96;99565.47;7286962;19;130040;-35
2023/09/28 00:10:17;;;;;;;164.07;12.27;;;;;;;22.66;55.22;99561.06;7285250;19;129227;-36
2023/09/28 00:12:45;;;;;;;159.13;11.27;;;;;;;22.65;55.04;99567.25;7285595;19;132744;-36
2023/09/28 00:15:11;;;;;;;129.52;10.52;;;;;;;22.56;54.67;99545.38;7285543;19;129839;-37
2023/09/28 00:17:38;;;;;;;163.40;12.33;;;;;;;22.54;55.08;99547.34;7287405;19;130563;-36
2023/09/28 00:20:32;;;;;;;142.70;11.18;;;;;;;22.58;56.35;99547.84;7286458;19;131034;-36
2023/09/28 00:22:58;;;;;;;100.82;8.48;;;;;;;22.67;54.99;99562.72;7285799;19;130870;-36
2023/09/28 00:25:23;;;;;;;205.50;14.53;;;;;;;22.66;55.39;99566.31;7284828;19;131681;-36
2023/09/28 00:27:50;;;;;;;159.55;11.95;;;;;;;22.56;55.20;99539.34;7288192;19;132206;-36
2023/09/28 00:30:21;;;;;;;127.40;10.30;;;;;;;22.69;54.93;99566.00;7291564;19;129158;-35
2023/09/28 00:32:47;;;;;;;150.45;11.27;;;;;;;22.69;55.15;99566.00;7292026;19;131394;-36
2023/09/28 00:35:13;;;;;;;150.17;11.50;;;;;;;22.70;54.93;99562.41;7294273;19;132515;-35
2023/09/28 00:37:39;;;;;;;186.60;13.03;;;;;;;22.70;54.69;99562.41;7292981;19;129837;-36
2023/09/28 00:42:43;;;;;;;109.97;9.45;;;;;;;22.70;54.98;99562.41;7292981;19;129781;-37
2023/09/28 00:45:10;;;;;;;105.18;8.93;;;;;;;22.66;55.38;99551.38;7292202;19;130547;-36
2023/09/28 00:47:38;;;;;;;121.43;9.68;;;;;;;22.71;54.50;99558.84;7290913;19;129604;-35
2023/09/28 00:50:14;;;;;;;146.40;11.25;;;;;;;22.70;54.52;99559.78;7291844;19;129430;-35
2023/09/28 00:52:46;;;;;;;143.10;10.82;;;;;;;22.70;55.47;99559.78;7293312;19;130479;-37
2023/09/28 00:55:15;;;;;;;158.77;12.40;;;;;;;22.69;54.89;99560.78;7291403;19;129939;-32
2023/09/28 00:57:42;;;;;;;102.72;8.27;;;;;;;22.70;54.93;99555.38;7293132;19;129022;-34
2023/09/28 01:00:23;;;;;;;152.73;11.45;;;;;;;22.70;54.54;99551.91;7290230;19;131100;-34
2023/09/28 01:02:52;;;;;;;159.93;11.65;;;;;;;22.67;54.51;99547.81;7289683;19;130213;-35
2023/09/28 01:05:22;;;;;;;166.70;12.82;;;;;;;22.57;54.88;99535.72;7291983;19;130146;-35
2023/09/28 01:07:48;;;;;;;141.10;11.15;;;;;;;22.69;54.77;99560.78;7292163;19;130603;-35
2023/09/28 01:10:23;;;;;;;138.48;11.07;;;;;;;22.68;54.43;99559.94;7289746;19;130340;-36
2023/09/28 01:12:52;;;;;;;167.68;12.35;;;;;;;22.68;54.46;99559.09;7289526;19;130323;-36
2023/09/28 01:15:17;;;;;;;175.43;13.00;;;;;;;22.69;54.49;99563.38;7291749;19;130346;-35
2023/09/28 01:17:43;;;;;;;114.33;9.20;;;;;;;22.68;54.46;99570.41;7292649;19;129216;-35
2023/09/28 01:20:17;;;;;;;126.60;10.03;;;;;;;22.62;53.98;99559.69;7291102;19;129827;-35
2023/09/28 01:22:43;;;;;;;153.65;11.75;;;;;;;22.62;53.96;99559.69;7290241;19;130390;-36
2023/09/28 01:25:09;;;;;;;155.17;11.43;;;;;;;22.69;54.48;99566.81;7290449;19;130783;-34
2023/09/28 01:27:35;;;;;;;117.22;9.73;;;;;;;22.71;54.54;99571.94;7291983;19;130151;-37
2023/09/28 01:30:01;;;;;;;147.37;11.43;;;;;;;22.70;53.81;99575.50;7289545;19;129089;-36
2023/09/28 01:32:26;;;;;;;163.70;12.30;;;;;;;22.70;54.14;99570.25;7289278;19;130085;-32
2023/09/28 01:34:51;;;;;;;163.87;12.37;;;;;;;22.69;54.37;99566.00;7290368;19;130687;-36
2023/09/28 01:37:21;;;;;;;126.57;10.27;;;;;;;22.71;54.91;99569.31;7291228;19;130061;-34
2023/09/28 01:39:46;;;;;;;123.25;9.68;;;;;;;22.66;54.72;99571.56;7289504;19;131180;-36
2023/09/28 01:42:12;;;;;;;171.17;12.60;;;;;;;22.64;54.16;99563.00;7290016;19;131010;-36
2023/09/28 01:44:37;;;;;;;169.57;12.60;;;;;;;22.66;54.02;99566.31;7290329;19;131267;-35
2023/09/28 01:47:02;;;;;;;94.50;8.27;;;;;;;22.69;53.65;99561.56;7287803;19;129394;-35
2023/09/28 01:49:28;;;;;;;145.18;10.85;;;;;;;22.68;54.29;99565.19;7289975;19;129786;-37
2023/09/28 01:51:53;;;;;;;155.15;11.65;;;;;;;22.67;53.92;99563.53;7288224;19;130235;-36
2023/09/28 01:54:18;;;;;;;194.77;14.30;;;;;;;22.52;54.39;99538.78;7291603;19;133212;-36
2023/09/28 01:56:44;;;;;;;147.17;10.93;;;;;;;22.67;53.87;99568.78;7291472;19;130787;-36
2023/09/28 01:59:09;;;;;;;106.13;9.10;;;;;;;22.66;54.16;99572.34;7290142;19;129166;-37
2023/09/28 02:01:35;;;;;;;174.53;12.77;;;;;;;22.67;54.19;99562.72;7287128;19;129580;-36
2023/09/28 02:04:00;;;;;;;116.95;10.38;;;;;;;22.54;54.26;99549.13;7291690;19;130349;-37
2023/09/28 02:06:25;;;;;;;198.07;14.70;;;;;;;22.63;54.31;99558.72;7289188;19;130288;-37
2023/09/28 02:08:51;;;;;;;185.67;14.07;;;;;;;22.63;54.42;99561.34;7288021;19;129812;-36
2023/09/28 02:11:16;;;;;;;201.23;14.05;;;;;;;22.68;53.94;99559.09;7288617;19;132002;-37
2023/09/28 02:13:41;;;;;;;78.67;7.50;;;;;;;22.59;54.40;99539.03;7290699;19;130532;-36
2023/09/28 02:16:11;;;;;;;138.67;10.90;;;;;;;22.66;55.01;99551.38;7287311;19;130434;-37
2023/09/28 02:18:37;;;;;;;142.10;10.63;;;;;;;22.69;54.01;99553.72;7287051;19;130697;-36
2023/09/28 02:21:03;;;;;;;161.00;12.17;;;;;;;22.67;53.94;99549.59;7289332;19;130124;-36
2023/09/28 02:23:28;;;;;;;183.93;13.97;;;;;;;22.67;53.91;99553.06;7291068;19;130421;-37
2023/09/28 02:25:53;;;;;;;106.00;8.93;;;;;;;22.65;53.85;99548.91;7287006;19;129411;-37
2023/09/28 02:28:19;;;;;;;147.60;11.77;;;;;;;22.68;53.95;99553.84;7286026;19;129197;-37
2023/09/28 02:30:44;;;;;;;151.50;11.80;;;;;;;22.66;53.42;99556.63;7286741;19;130241;-37
2023/09/28 02:33:10;;;;;;;131.00;11.10;;;;;;;22.66;53.70;99550.59;7291968;19;130776;-34
2023/09/28 02:35:36;;;;;;;145.27;11.38;;;;;;;22.68;53.26;99553.84;7284024;19;131220;-36
2023/09/28 02:38:01;;;;;;;112.32;9.40;;;;;;;22.66;53.54;99558.44;7289664;19;129583;-37
2023/09/28 02:40:29;;;;;;;183.30;12.93;;;;;;;22.58;53.35;99553.09;7287641;19;130998;-35
2023/09/28 02:42:55;;;;;;;147.32;11.60;;;;;;;22.59;53.71;99552.94;7288318;19;131323;-37
2023/09/28 02:45:20;;;;;;;172.40;13.50;;;;;;;;;;7285750;19;129859;-34
2023/09/28 02:47:47;;;;;;;168.00;12.70;;;;;;;22.63;53.92;99561.34;7289171;19;129516;-36
2023/09/28 02:50:16;;;;;;;144.30;11.00;;;;;;;22.53;53.98;99539.59;7286938;19;130178;-36
2023/09/28 02:52:43;;;;;;;100.18;9.32;;;;;;;22.62;53.59;99564.94;7288245;19;131205;-33
2023/09/28 02:55:10;;;;;;;;;;;;;;;22.68;55.93;99569.59;7288626;19;129978;-36
2023/09/28 02:57:36;;;;;;;137.80;11.05;;;;;;;22.64;53.56;99568.25;7289112;19;131852;-34
2023/09/28 03:00:11;;;;;;;151.13;12.30;;;;;;;22.62;53.99;99571.00;7287087;19;130736;-37
2023/09/28 03:02:37;;;;;;;159.05;12.40;;;;;;;22.62;53.02;99571.00;7288850;19;130479;-35
2023/09/28 03:05:03;;;;;;;121.80;10.40;;;;;;;22.59;53.52;99580.97;7287043;19;129434;-36
2023/09/28 03:07:28;;;;;;;164.77;12.83;;;;;;;22.62;53.63;99580.66;7285422;19;130069;-33
2023/09/28 03:09:54;;;;;;;176.43;13.38;;;;;;;22.60;53.32;99582.59;7288112;19;130505;-36
2023/09/28 03:12:20;;;;;;;190.80;15.20;;;;;;;22.59;53.74;99586.19;7287831;19;129577;-37
2023/09/28 03:14:45;;;;;;;195.00;14.93;;;;;;;22.59;53.99;99587.00;7283073;19;129502;-36
2023/09/28 03:17:10;;;;;;;135.80;11.03;;;;;;;22.60;53.44;99593.09;7286229;19;130329;-36
2023/09/28 03:19:36;;;;;;;169.63;12.50;;;;;;;22.62;54.16;99596.38;7289290;19;131174;-36
2023/09/28 03:22:01;;;;;;;149.23;11.50;;;;;;;22.61;53.68;99603.41;7285936;19;130921;-36
2023/09/28 03:24:26;;;;;;;147.07;12.30;;;;;;;22.48;53.16;99581.94;7288330;19;129731;-35
2023/09/28 03:26:52;;;;;;;174.57;12.60;;;;;;;22.62;53.75;99601.63;7284475;19;129651;-37
2023/09/28 03:29:17;;;;;;;144.33;11.33;;;;;;;22.61;53.57;99607.84;7286285;19;130360;-37
2023/09/28 03:31:42;;;;;;;137.90;11.37;;;;;;;22.61;53.90;99605.22;7285275;19;131957;-34
2023/09/28 03:34:08;;;;;;;133.07;10.88;;;;;;;22.58;53.48;99602.88;7287795;19;130010;-34
2023/09/28 03:36:33;;;;;;;189.43;14.03;;;;;;;22.45;53.88;99586.63;7286416;19;130442;-37
2023/09/28 03:38:59;;;;;;;142.15;12.05;;;;;;;22.57;53.61;99596.84;7285302;19;130774;-36
2023/09/28 03:41:25;;;;;;;144.00;11.45;;;;;;;22.61;53.52;99615.72;7282682;19;130899;-37
2023/09/28 03:43:51;;;;;;;;;;;;;;;22.65;54.89;99617.88;7287894;19;130581;-36
2023/09/28 03:46:20;;;;;;;170.65;12.52;;;;;;;22.63;53.75;99616.38;7284790;19;130340;-34
2023/09/28 03:48:46;;;;;;;139.20;11.40;;;;;;;22.59;52.84;99617.66;7287648;19;132360;-34
2023/09/28 03:51:11;;;;;;;189.07;14.53;;;;;;;22.58;53.01;99614.19;7283656;19;130934;-36
2023/09/28 03:53:40;;;;;;;125.87;10.30;;;;;;;22.57;53.60;99604.69;7286736;19;129479;-36
2023/09/28 03:56:06;;;;;;;184.90;13.70;;;;;;;22.58;53.38;99606.34;7287745;19;133194;-36
2023/09/28 03:58:31;;;;;;;177.27;13.73;;;;;;;22.59;53.27;99602.72;7286971;19;130367;-36
2023/09/28 04:00:57;;;;;;;90.30;8.43;;;;;;;22.60;53.57;99598.31;7282241;19;130013;-34
2023/09/28 04:03:23;;;;;;;181.60;14.27;;;;;;;22.58;53.19;99610.75;7281014;19;129939;-37
2023/09/28 04:05:48;;;;;;;164.52;12.60;;;;;;;22.55;53.32;99595.31;7284642;19;131362;-35
2023/09/28 04:08:14;;;;;;;144.53;11.90;;;;;;;22.56;52.87;99602.22;7286575;19;129592;-37
2023/09/28 04:10:41;;;;;;;130.43;10.55;;;;;;;22.58;53.06;99595.00;7282478;19;130439;-36
2023/09/28 04:13:07;;;;;;;97.35;8.82;;;;;;;22.56;52.92;99596.97;7283217;19;130221;-36
2023/09/28 04:15:32;;;;;;;184.13;14.00;;;;;;;22.43;53.33;99575.50;7285532;19;133289;-38
2023/09/28 04:17:58;;;;;;;145.40;11.73;;;;;;;22.50;53.44;99597.50;7285883;19;130133;-37
2023/09/28 04:20:23;;;;;;;120.07;10.47;;;;;;;22.55;52.89;99611.88;7282532;19;130082;-36
2023/09/28 04:22:49;;;;;;;144.65;11.75;;;;;;;22.56;52.91;99607.47;7285458;19;130599;-36
2023/09/28 04:25:15;;;;;;;178.63;14.02;;;;;;;22.54;53.33;99610.22;7283303;19;129986;-36
2023/09/28 04:27:40;;;;;;;123.50;11.27;;;;;;;22.52;53.38;99604.28;7280954;19;131179;-36
2023/09/28 04:30:08;;;;;;;141.00;11.80;;;;;;;22.53;53.82;99608.56;7285902;19;130710;-37
2023/09/28 04:32:34;;;;;;;177.77;14.57;;;;;;;22.54;53.66;99612.84;7277095;19;130463;-37
2023/09/28 04:35:00;;;;;;;144.57;11.93;;;;;;;22.53;53.43;99612.97;7284570;19;130546;-36
2023/09/28 04:37:26;;;;;;;179.32;13.95;;;;;;;22.55;53.39;99608.41;7287797;19;131786;-36
2023/09/28 04:39:53;;;;;;;168.47;13.43;;;;;;;22.60;53.17;99609.63;7279711;19;130576;-36
2023/09/28 04:42:20;;;;;;;;;;;;;;;22.59;54.81;99604.53;7281957;19;132175;-37
2023/09/28 04:44:45;;;;;;;203.57;15.17;;;;;;;22.45;52.79;99584.03;7281851;19;132426;-36
2023/09/28 04:47:11;;;;;;;114.68;10.32;;;;;;;22.58;53.29;99605.50;7277937;19;130218;-36
2023/09/28 04:49:38;;;;;;;145.77;11.48;;;;;;;22.50;53.26;99592.28;7283335;19;131005;-36
2023/09/28 04:52:04;;;;;;;164.68;12.60;;;;;;;22.55;53.48;99605.78;7280021;19;130134;-34
2023/09/28 04:54:32;;;;;;;216.67;15.67;;;;;;;22.50;52.85;99603.59;7283310;19;130641;-36
2023/09/28 04:56:58;;;;;;;139.45;11.38;;;;;;;22.53;53.37;99605.09;7284494;19;131961;-36
2023/09/28 04:59:23;;;;;;;162.40;12.30;;;;;;;22.52;52.76;99595.56;7280802;19;130347;-36
2023/09/28 05:01:48;;;;;;;141.02;11.20;;;;;;;22.53;53.17;99602.50;7280618;19;130295;-37
2023/09/28 05:04:14;;;;;;;194.17;14.33;;;;;;;22.55;53.47;99605.78;7285363;19;131240;-36
2023/09/28 05:06:40;;;;;;;174.88;13.45;;;;;;;22.38;53.62;99589.03;7283619;19;130735;-36
2023/09/28 05:09:06;;;;;;;162.55;12.77;;;;;;;22.51;53.32;99617.53;7276420;19;130514;-36
2023/09/28 05:11:31;;;;;;;169.17;12.80;;;;;;;22.51;53.34;99614.91;7281002;19;129711;-36
2023/09/28 05:13:56;;;;;;;143.23;11.90;;;;;;;22.52;53.80;99612.13;7282338;19;131538;-37
2023/09/28 05:16:21;;;;;;;233.93;16.40;;;;;;;22.51;53.82;99614.91;7286572;19;132652;-36
2023/09/28 05:18:47;;;;;;;143.38;11.43;;;;;;;22.53;53.29;99618.22;7288775;19;130248;-36
2023/09/28 05:21:12;;;;;;;131.67;9.93;;;;;;;22.54;53.41;99620.72;7288092;19;129941;-36
2023/09/28 05:23:38;;;;;;;161.20;11.97;;;;;;;22.56;53.66;99623.19;7291197;19;129727;-35
2023/09/28 05:26:04;;;;;;;128.10;10.23;;;;;;;22.53;53.35;99619.03;7288974;19;132009;-36
2023/09/28 05:28:29;;;;;;;202.07;15.40;;;;;;;22.56;52.95;99610.88;7289900;19;130358;-37
2023/09/28 05:30:54;;;;;;;177.37;12.93;;;;;;;22.56;52.65;99623.19;7290793;19;130376;-37
2023/09/28 05:33:20;;;;;;;120.47;10.02;;;;;;;22.55;53.57;99613.66;7291814;19;129398;-36
2023/09/28 05:35:46;;;;;;;140.87;11.13;;;;;;;22.55;53.20;99621.50;7285532;19;131450;-36
2023/09/28 05:38:11;;;;;;;106.60;9.03;;;;;;;22.39;53.02;99602.94;7290964;19;132920;-35
2023/09/28 05:40:37;;;;;;;172.35;13.35;;;;;;;22.51;53.00;99620.13;7283453;19;129679;-36
2023/09/28 05:43:02;;;;;;;116.60;9.07;;;;;;;22.52;53.14;99624.41;7285278;19;129991;-35
2023/09/28 05:45:27;;;;;;;140.32;11.18;;;;;;;22.51;52.51;99631.41;7287814;19;130824;-36
2023/09/28 05:47:53;;;;;;;140.45;11.55;;;;;;;22.51;52.73;99630.63;7285736;19;130835;-37
2023/09/28 05:50:18;;;;;;;172.83;13.07;;;;;;;22.52;53.41;99632.25;7288425;19;130093;-38
2023/09/28 05:52:45;;;;;;;173.93;13.13;;;;;;;22.51;52.68;99638.47;7290955;19;130220;-37
2023/09/28 05:55:10;;;;;;;108.75;9.27;;;;;;;22.51;53.18;99638.47;7288389;19;132118;-35
2023/09/28 05:57:36;;;;;;;168.27;12.70;;;;;;;22.47;53.02;99639.72;7290323;19;131489;-38
2023/09/28 06:00:07;;;;;;;163.00;12.57;;;;;;;22.40;52.80;99621.13;7289622;19;129397;-38
2023/09/28 06:02:32;;;;;;;150.82;12.32;;;;;;;22.49;53.27;99648.28;7289637;19;131222;-38
2023/09/28 06:04:58;;;;;;;142.10;11.90;;;;;;;22.50;52.99;99650.75;7288913;19;129721;-36
2023/09/28 06:07:24;;;;;;;190.52;13.63;;;;;;;22.49;52.63;99654.34;7287341;19;130401;-36
2023/09/28 06:09:49;;;;;;;192.67;13.87;;;;;;;22.40;52.82;99643.88;7289445;19;129494;-38
2023/09/28 06:12:14;;;;;;;123.00;10.13;;;;;;;22.52;52.84;99658.47;7291059;19;129663;-37
2023/09/28 06:14:40;;;;;;;163.23;12.83;;;;;;;22.53;53.29;99665.38;7287474;19;130137;-38
2023/09/28 06:17:05;;;;;;;139.88;10.93;;;;;;;22.47;53.61;99658.91;7288947;19;130233;-36
2023/09/28 06:19:31;;;;;;;149.47;11.60;;;;;;;22.45;53.06;99654.75;7290452;19;131390;-37
2023/09/28 06:21:57;;;;;;;118.07;10.25;;;;;;;22.52;53.48;99661.06;7287631;19;131080;-37
2023/09/28 06:24:22;;;;;;;93.22;8.52;;;;;;;22.53;53.65;99668.00;7288080;19;129930;-34
2023/09/28 06:26:53;;;;;;;187.65;13.10;;;;;;;22.50;53.52;99669.09;7285363;19;131086;-36
2023/09/28 06:29:18;;;;;;;150.40;11.68;;;;;;;22.50;53.18;99676.94;7289480;19;129869;-33
2023/09/28 06:31:44;;;;;;;125.77;10.80;;;;;;;22.50;53.19;99670.88;7287248;19;129514;-35
2023/09/28 06:34:09;;;;;;;150.83;12.10;;;;;;;22.50;53.26;99676.94;7288796;19;130409;-38
2023/09/28 06:36:34;;;;;;;189.90;14.03;;;;;;;22.48;53.34;99676.25;7289559;19;132173;-37
2023/09/28 06:39:00;;;;;;;169.90;13.27;;;;;;;22.48;53.63;99683.28;7288561;19;129580;-33
2023/09/28 06:41:26;;;;;;;111.97;9.67;;;;;;;22.48;53.19;99683.28;7288247;19;129498;-35
2023/09/28 06:43:51;;;;;;;137.77;11.90;;;;;;;22.50;54.26;99684.81;7287857;19;130941;-39
2023/09/28 06:46:17;;;;;;;146.37;11.37;;;;;;;22.50;53.90;99689.22;7289586;19;130416;-36
2023/09/28 06:48:43;;;;;;;154.10;11.88;;;;;;;22.52;53.98;99689.91;7289764;19;131517;-33
2023/09/28 06:51:08;;;;;;;121.93;10.23;;;;;;;22.38;53.63;99664.19;7285888;19;129236;-36
2023/09/28 06:53:33;;;;;;;150.13;11.70;;;;;;;22.47;53.42;99679.03;7287897;19;130256;-37
2023/09/28 06:56:02;;;;;;;169.77;12.97;;;;;;;22.46;54.04;99680.00;7290392;19;131501;-39
2023/09/28 06:58:28;;;;;;;125.47;10.48;;;;;;;22.47;54.01;99671.16;7290418;19;130136;-37
2023/09/28 07:00:53;;;;;;;156.17;12.20;;;;;;;22.47;53.90;99676.41;7287276;19;131378;-35
2023/09/28 07:03:19;;;;;;;132.13;10.45;;;;;;;22.45;53.59;99683.56;7287783;19;129432;-36
2023/09/28 07:05:45;;;;;;;212.52;15.35;;;;;;;22.46;53.86;99674.75;7287801;19;130465;-33
2023/09/28 07:08:10;;;;;;;136.27;10.90;;;;;;;22.44;54.29;99682.78;7288971;19;130120;-38
2023/09/28 07:10:36;;;;;;;149.02;12.25;;;;;;;22.44;53.82;99687.19;7286559;19;129818;-39
2023/09/28 07:13:05;;;;;;;147.53;11.83;;;;;;;22.44;53.68;99688.00;7287163;19;129445;-33
2023/09/28 07:15:31;;;;;;;145.73;11.52;;;;;;;22.45;53.59;99694.06;7289343;19;132077;-37
2023/09/28 07:17:57;;;;;;;143.60;11.18;;;;;;;22.46;53.78;99685.25;7288190;19;130012;-35
2023/09/28 07:20:23;;;;;;;146.13;11.13;;;;;;;22.45;54.27;99688.81;7287577;19;130235;-36
2023/09/28 07:22:49;;;;;;;163.77;13.47;;;;;;;22.45;53.99;99689.66;7287643;19;129797;-38
2023/09/28 07:25:15;;;;;;;151.87;11.90;;;;;;;22.45;54.40;99688.81;7285592;19;130230;-39
2023/09/28 07:27:42;;;;;;;147.07;11.65;;;;;;;22.44;53.72;99680.16;7287236;19;129842;-38
2023/09/28 07:30:08;;;;;;;;;;;;;;;22.48;56.03;99684.13;7288601;19;129440;-39
2023/09/28 07:32:34;;;;;;;136.82;11.48;;;;;;;22.47;53.87;99681.66;7288635;19;130776;-33
2023/09/28 07:35:00;;;;;;;165.57;12.40;;;;;;;22.35;54.03;99669.69;7286151;19;131841;-37
2023/09/28 07:37:27;;;;;;;160.77;12.47;;;;;;;22.45;54.28;99680.94;7286139;19;131455;-38
2023/09/28 07:39:53;;;;;;;159.20;12.70;;;;;;;22.28;54.23;99661.56;7285596;19;129584;-34
2023/09/28 07:42:19;;;;;;;108.67;9.53;;;;;;;22.43;54.22;99690.78;7288594;19;130629;-34
2023/09/28 07:44:44;;;;;;;184.77;13.80;;;;;;;22.41;54.19;99695.31;7286422;19;132512;-35
2023/09/28 07:47:10;;;;;;;127.30;10.17;;;;;;;22.42;54.85;99699.59;7285753;19;130287;-37
2023/09/28 07:49:36;;;;;;;110.83;9.20;;;;;;;22.43;54.84;99701.25;7286809;19;129900;-36
2023/09/28 07:52:02;;;;;;;131.77;10.37;;;;;;;22.26;54.40;99673.16;7286180;19;130849;-38
2023/09/28 07:54:28;;;;;;;125.38;10.57;;;;;;;22.40;54.08;99691.88;7288357;19;131632;-36
2023/09/28 07:56:55;;;;;;;143.65;11.43;;;;;;;22.42;54.93;99694.34;7285961;19;129542;-36
2023/09/28 07:59:20;;;;;;;117.43;9.68;;;;;;;22.41;54.93;99697.94;7287594;19;131567;-37
2023/09/28 08:01:47;;;;;;;185.80;13.63;;;;;;;22.40;54.95;99701.50;7285359;19;131186;-37
2023/09/28 08:04:12;;;;;;;138.93;10.98;;;;;;;22.38;54.84;99703.47;7286116;19;130543;-37
2023/09/28 08:06:38;;;;;;;141.33;11.07;;;;;;;22.40;54.91;99702.34;7286909;19;130068;-35
2023/09/28 08:09:03;;;;;;;157.48;12.32;;;;;;;22.40;55.00;99718.06;7288087;19;130658;-37
2023/09/28 08:11:28;;;;;;;190.47;13.67;;;;;;;22.40;55.13;99712.00;7284697;19;130236;-38
2023/09/28 08:13:54;;;;;;;169.65;13.20;;;;;;;22.35;54.28;99719.44;7287657;19;129968;-37
2023/09/28 08:16:20;;;;;;;109.13;9.15;;;;;;;22.35;55.23;99719.44;7285197;19;129855;-38
2023/09/28 08:18:46;;;;;;;179.32;13.43;;;;;;;22.37;54.53;99728.00;7284852;19;129851;-36
2023/09/28 08:21:11;;;;;;;231.90;15.98;;;;;;;22.36;54.33;99723.75;7282831;19;130252;-36
2023/09/28 08:23:37;;;;;;;160.50;12.03;;;;;;;22.28;55.29;99702.66;7286421;19;129600;-37
2023/09/28 08:26:03;;;;;;;113.17;9.50;;;;;;;22.35;54.59;99717.66;7284991;19;130195;-35
2023/09/28 08:28:29;;;;;;;143.43;11.07;;;;;;;22.40;54.65;99718.06;7285285;19;130096;-35
2023/09/28 08:30:56;;;;;;;169.30;12.32;;;;;;;22.24;54.93;99691.63;7284387;19;130240;-35
2023/09/28 08:33:21;;;;;;;;;;;;;;;22.38;56.09;99708.72;7282880;19;131845;-32
2023/09/28 08:35:48;;;;;;;152.88;11.25;;;;;;;22.39;55.11;99710.34;7285475;19;130262;-36
2023/09/28 08:38:13;;;;;;;116.05;9.25;;;;;;;22.23;55.14;99689.97;7286702;19;129172;-39
2023/09/28 08:40:39;;;;;;;170.88;12.23;;;;;;;22.27;54.45;99685.28;7284629;19;130666;-38
2023/09/28 08:43:08;;;;;;;131.40;9.82;;;;;;;22.25;54.93;99688.03;7285993;19;130748;-37
2023/09/28 08:45:33;;;;;;;172.68;12.38;;;;;;;22.44;55.14;99708.13;7282863;19;129858;-35
2023/09/28 08:48:01;;;;;;;114.87;9.20;;;;;;;22.27;55.12;99687.91;7280770;19;130386;-35
2023/09/28 08:50:38;;;;;;;163.85;11.40;;;;;;;22.40;55.88;99712.81;7289000;19;129616;-38
2023/09/28 08:53:04;;;;;;;;;;;;;;;22.42;56.32;99713.50;7292043;19;131135;-36
2023/09/28 08:55:34;;;;;;;151.18;11.07;;;;;;;22.44;55.20;99718.59;7290860;19;130759;-36
2023/09/28 08:58:01;;;;;;;148.02;11.35;;;;;;;22.46;55.24;99707.00;7291638;19;129791;-36
2023/09/28 09:00:26;;;;;;;156.23;11.25;;;;;;;22.42;54.69;99710.06;7291832;19;133402;-38
2023/09/28 09:02:52;;;;;;;180.37;12.90;;;;;;;22.43;55.00;99703.88;7293036;19;130115;-35
2023/09/28 09:05:18;;;;;;;143.45;10.65;;;;;;;22.45;55.39;99704.53;7290062;19;129580;-36
2023/09/28 09:07:43;;;;;;;145.85;10.32;;;;;;;22.47;54.94;99702.59;7289470;19;130248;-38
2023/09/28 09:10:17;;;;;;;180.68;12.30;;;;;;;22.47;55.20;99702.59;7290568;19;130151;-38
2023/09/28 09:12:42;;;;;;;132.07;10.38;;;;;;;22.47;54.96;99702.59;7292230;19;129246;-33
2023/09/28 09:15:08;;;;;;;103.93;8.47;;;;;;;22.46;55.20;99703.59;7291052;19;129195;-38
2023/09/28 09:17:35;;;;;;;158.43;11.87;;;;;;;22.47;55.27;99692.13;7291515;19;130086;-37
2023/09/28 09:20:01;;;;;;;156.82;11.63;;;;;;;22.36;55.31;99676.59;7288989;19;133055;-35
2023/09/28 09:22:28;;;;;;;145.32;11.48;;;;;;;22.48;55.08;99693.75;7292599;19;130882;-34
2023/09/28 09:25:00;;;;;;;140.65;10.60;;;;;;;22.49;55.45;99700.66;7293425;19;130639;-36
2023/09/28 09:27:29;;;;;;;146.32;11.02;;;;;;;22.49;55.61;99700.66;7289743;19;129713;-34
2023/09/28 09:30:08;;;;;;;182.65;13.02;;;;;;;22.50;56.17;99702.31;7287756;19;131049;-35
2023/09/28 09:32:42;;;;;;;154.27;11.35;;;;;;;22.50;55.71;99699.69;7291187;19;129337;-33
2023/09/28 09:35:08;;;;;;;160.05;11.70;;;;;;;22.41;55.85;99671.75;7289933;19;130841;-36
2023/09/28 09:37:33;;;;;;;151.90;11.30;;;;;;;22.53;55.72;99707.28;7291942;19;129602;-35
2023/09/28 09:40:13;;;;;;;201.80;14.13;;;;;;;22.52;56.68;99708.25;7287744;19;129752;-37
2023/09/28 09:42:39;;;;;;;128.55;10.45;;;;;;;22.49;55.12;99695.44;7291228;19;132136;-36
2023/09/28 09:45:07;;;;;;;149.67;10.87;;;;;;;22.53;55.60;99699.44;7291339;19;130316;-38
2023/09/28 09:47:33;;;;;;;165.27;12.18;;;;;;;22.47;55.65;99697.38;7289518;19;130093;-35
2023/09/28 09:50:00;;;;;;;146.75;11.38;;;;;;;22.48;55.85;99693.75;7290402;19;130099;-36
2023/09/28 09:52:26;;;;;;;;;;;;;;;22.54;56.38;99693.25;7290669;19;130421;-38
2023/09/28 09:54:51;;;;;;;180.00;12.93;;;;;;;22.45;55.67;99673.09;7290408;19;129386;-33
2023/09/28 09:57:20;;;;;;;100.97;8.17;;;;;;;22.54;55.74;99696.69;7292637;19;129380;-35
2023/09/28 09:59:48;;;;;;;144.38;11.10;;;;;;;22.55;55.30;99692.25;7290458;19;130004;-35
2023/09/28 10:02:28;;;;;;;131.00;9.77;;;;;;;22.57;56.05;99695.56;7289648;19;130877;-38
2023/09/28 10:04:54;;;;;;;151.43;11.77;;;;;;;22.56;55.93;99691.31;7287018;19;129948;-33
2023/09/28 10:07:30;;;;;;;178.63;12.25;;;;;;;22.56;56.26;99702.59;7289533;19;130537;-38
2023/09/28 10:09:56;;;;;;;142.15;10.80;;;;;;;22.56;55.98;99701.78;7290751;19;131524;-36
2023/09/28 10:12:23;;;;;;;131.23;9.77;;;;;;;22.54;56.20;99691.47;7290119;19;130847;-32
2023/09/28 10:14:49;;;;;;;127.93;10.02;;;;;;;22.60;56.04;99692.66;7287849;19;129456;-33
2023/09/28 10:17:15;;;;;;;154.53;11.47;;;;;;;22.59;55.63;99688.41;7288682;19;130758;-36
2023/09/28 10:19:41;;;;;;;159.23;11.75;;;;;;;22.52;56.16;99689.91;7289256;19;131046;-35
2023/09/28 10:22:06;;;;;;;97.47;8.33;;;;;;;22.50;55.95;99690.03;7288625;19;130814;-36
2023/09/28 10:24:34;;;;;;;148.20;10.73;;;;;;;22.38;56.61;99669.41;7291238;19;131190;-37
2023/09/28 10:27:10;;;;;;;142.48;11.48;;;;;;;22.50;56.48;99691.84;7289355;19;129285;-33
2023/09/28 10:29:36;;;;;;;185.48;12.85;;;;;;;22.49;55.57;99684.94;7289793;19;130228;-34
2023/09/28 10:32:12;;;;;;;154.23;11.93;;;;;;;22.49;56.79;99684.94;7288477;19;130764;-37
2023/09/28 10:34:39;;;;;;;151.10;11.82;;;;;;;22.60;55.78;99684.78;7288539;19;130601;-35
2023/09/28 10:37:04;;;;;;;154.30;11.82;;;;;;;22.61;56.07;99679.41;7288256;19;129330;-37
2023/09/28 10:39:31;;;;;;;162.67;11.93;;;;;;;22.61;55.75;99663.69;7289483;19;129659;-35
2023/09/28 10:42:04;;;;;;;156.18;11.88;;;;;;;22.56;56.28;99665.91;7288114;19;131107;-38
2023/09/28 10:44:32;;;;;;;161.00;12.00;;;;;;;22.56;56.36;99676.41;7289442;19;129335;-34
2023/09/28 10:46:58;;;;;;;156.52;11.90;;;;;;;22.54;55.81;99677.53;7288244;19;129669;-38
2023/09/28 10:49:24;;;;;;;131.67;10.47;;;;;;;22.56;56.24;99675.59;7288801;19;130985;-38
2023/09/28 10:51:51;;;;;;;148.93;11.10;;;;;;;22.56;55.63;99671.16;7287677;19;130261;-33
2023/09/28 10:54:17;;;;;;;110.72;9.23;;;;;;;22.56;55.81;99680.81;7288934;19;130646;-38
2023/09/28 10:56:42;;;;;;;120.43;9.63;;;;;;;22.53;55.91;99681.09;7289390;19;129669;-38
2023/09/28 10:59:10;;;;;;;145.50;10.60;;;;;;;22.43;55.84;99651.47;7288930;19;132487;-35
2023/09/28 11:01:42;;;;;;;144.90;11.00;;;;;;;22.56;56.38;99671.16;7286943;19;129709;-35
2023/09/28 11:04:08;;;;;;;196.80;13.73;;;;;;;22.59;56.03;99688.41;7289065;19;132520;-38